Gillsburg, Mississippi
Current Conditions -  °F | °C
As of 3:53 AM on Sunday 23 Nov 2014 (Local Time) from KMCB Reporting Station
Overcast Overcast  
Wind Chill: 61°   Ceiling: 400
Heat Index: 61°   Visibility: 10mi
Dew Point: 59°   Wind: 7mph
Humidity: 93%   Direction: 120°ESE
Pressure: 29.78"   Gusts: NA
Location:  31.0276°N, 90.4793°W
Report Text: KMCB 230953Z AUTO 12006KT 10SM OVC004 16/15 A2978 RMK AO2 SLP082 T01610150
Loading
Personal Weather Stations






























Interactive Weather Map New forecast layout! Learn more

10-Day Weather Forecast

Advertisements
Track Severe Weather on mobile